Time;durP1;ratioP1;P1;durP2;ratioP2;P2;SDS_P1;SDS_P2;PMS_P1;PMS_P2;Temp;Humidity;BMP_temperature;BMP_pressure;BME280_temperature;BME280_humidity;BME280_pressure;Samples;Min_cycle;Max_cycle;Signal;HPM_P1;HPM_P2
2023/05/28 00:00:27;;;;;;;9.57;4.00;;;19.20;51.50;;;;;;5075111;28;20734;-74
2023/05/28 00:02:56;;;;;;;8.45;3.60;;;19.20;51.50;;;;;;5075305;28;20190;-74
2023/05/28 00:05:23;;;;;;;9.18;3.40;;;19.20;51.50;;;;;;5075096;28;20219;-74
2023/05/28 00:07:50;;;;;;;8.40;3.72;;;19.20;51.50;;;;;;5057528;28;20186;-74
2023/05/28 00:10:17;;;;;;;10.77;3.92;;;19.20;51.60;;;;;;5074930;28;20712;-74
2023/05/28 00:12:44;;;;;;;9.07;3.67;;;19.20;51.60;;;;;;5075138;28;20193;-73
2023/05/28 00:15:11;;;;;;;9.90;3.88;;;19.10;51.50;;;;;;5074372;28;20246;-74
2023/05/28 00:17:38;;;;;;;11.07;3.88;;;19.20;51.60;;;;;;5075169;28;20191;-75
2023/05/28 00:20:07;;;;;;;12.95;4.47;;;19.20;51.60;;;;;;5074782;28;20734;-75
2023/05/28 00:22:35;;;;;;;8.82;3.75;;;19.10;51.50;;;;;;5073540;28;20194;-74
2023/05/28 00:25:02;;;;;;;7.32;3.40;;;19.20;51.70;;;;;;5086497;28;20588;-75
2023/05/28 00:27:28;;;;;;;12.40;4.35;;;19.20;51.60;;;;;;5097424;28;20192;-74
2023/05/28 00:29:55;;;;;;;8.90;3.83;;;19.10;51.50;;;;;;5115347;28;20589;-75
2023/05/28 00:32:22;;;;;;;8.32;3.90;;;19.20;51.60;;;;;;5115653;28;20185;-75
2023/05/28 00:34:49;;;;;;;9.93;3.78;;;19.10;51.60;;;;;;5115339;28;20304;-75
2023/05/28 00:37:18;;;;;;;6.50;3.47;;;19.10;51.60;;;;;;5115364;28;20210;-75
2023/05/28 00:39:44;;;;;;;7.65;3.65;;;19.10;51.60;;;;;;5115376;28;20213;-75
2023/05/28 00:42:12;;;;;;;7.88;4.13;;;19.10;51.60;;;;;;5115454;28;20186;-74
2023/05/28 00:44:39;;;;;;;11.23;3.72;;;19.10;51.60;;;;;;5115158;28;20213;-75
2023/05/28 00:47:06;;;;;;;7.35;3.22;;;19.10;51.60;;;;;;5115101;28;20185;-74
2023/05/28 00:49:34;;;;;;;8.00;3.63;;;19.10;51.60;;;;;;5115199;28;20571;-75
2023/05/28 00:52:03;;;;;;;7.43;3.20;;;19.10;51.60;;;;;;5114621;28;20577;-75
2023/05/28 00:54:32;;;;;;;7.88;3.13;;;19.10;51.70;;;;;;5115029;28;20224;-74
2023/05/28 00:57:00;;;;;;;7.82;3.30;;;19.10;51.60;;;;;;5115000;28;20220;-75
2023/05/28 00:59:28;;;;;;;8.10;3.53;;;19.10;51.70;;;;;;5097135;28;20217;-74
2023/05/28 01:01:55;;;;;;;6.38;3.42;;;19.10;51.70;;;;;;5096776;28;20196;-75
2023/05/28 01:04:24;;;;;;;13.07;4.22;;;19.10;51.70;;;;;;5114568;28;20224;-74
2023/05/28 01:06:51;;;;;;;9.88;3.50;;;19.10;51.70;;;;;;5114356;28;20204;-75
2023/05/28 01:09:18;;;;;;;11.35;4.18;;;19.10;51.70;;;;;;5114481;28;20192;-75
2023/05/28 01:11:51;;;;;;;6.75;3.33;;;19.10;51.70;;;;;;5114360;28;20667;-75
2023/05/28 01:14:18;;;;;;;9.95;3.53;;;19.10;51.70;;;;;;5114338;28;20647;-75
2023/05/28 01:16:46;;;;;;;7.10;3.25;;;19.10;51.70;;;;;;5114462;28;20224;-75
2023/05/28 01:19:18;;;;;;;9.63;3.72;;;19.10;51.70;;;;;;5114574;28;20234;-75
2023/05/28 01:21:47;;;;;;;6.65;3.65;;;19.10;51.70;;;;;;5114283;28;20710;-75
2023/05/28 01:24:16;;;;;;;8.13;3.20;;;19.10;51.70;;;;;;5114325;28;20182;-75
2023/05/28 01:26:44;;;;;;;7.05;3.47;;;19.10;51.70;;;;;;5114457;28;20195;-75
2023/05/28 01:29:17;;;;;;;13.65;4.13;;;19.10;52.40;;;;;;5114233;28;20189;-75
2023/05/28 01:31:45;;;;;;;7.78;3.10;;;19.10;51.70;;;;;;5114476;28;20230;-75
2023/05/28 01:34:13;;;;;;;8.43;3.17;;;19.10;51.80;;;;;;5114156;28;20216;-75
2023/05/28 01:36:45;;;;;;;9.93;3.83;;;19.10;51.70;;;;;;5096047;28;20213;-75
2023/05/28 01:39:19;;;;;;;7.10;3.15;;;19.10;51.80;;;;;;5114110;28;20194;-75
2023/05/28 01:41:47;;;;;;;7.20;3.35;;;19.00;51.70;;;;;;5114106;28;20185;-75
2023/05/28 01:44:16;;;;;;;8.13;3.50;;;19.10;51.70;;;;;;5113857;28;20189;-74
2023/05/28 01:46:45;;;;;;;8.90;3.20;;;19.00;51.70;;;;;;5114020;28;20185;-74
2023/05/28 01:49:12;;;;;;;6.13;3.15;;;19.10;51.80;;;;;;5095555;28;20710;-75
2023/05/28 01:51:39;;;;;;;6.80;3.30;;;19.00;51.70;;;;;;5113617;28;20239;-74
2023/05/28 01:54:06;;;;;;;10.52;3.60;;;19.00;51.70;;;;;;5113705;28;20200;-75
2023/05/28 01:56:35;;;;;;;7.70;3.28;;;19.00;51.70;;;;;;5095279;28;20215;-74
2023/05/28 01:59:02;;;;;;;11.65;3.63;;;19.00;51.70;;;;;;5113500;28;20655;-75
2023/05/28 02:01:30;;;;;;;7.57;3.55;;;19.00;51.70;;;;;;5095665;28;20228;-75
2023/05/28 02:03:57;;;;;;;5.38;3.20;;;19.00;51.70;;;;;;5113829;28;20189;-75
2023/05/28 02:06:25;;;;;;;6.05;2.97;;;19.00;51.70;;;;;;5113435;28;20224;-75
2023/05/28 02:08:52;;;;;;;6.85;3.63;;;19.00;51.80;;;;;;5113532;28;20246;-75
2023/05/28 02:11:21;;;;;;;7.40;3.22;;;19.00;51.80;;;;;;5113177;28;20568;-75
2023/05/28 02:13:50;;;;;;;7.75;2.90;;;19.00;51.80;;;;;;5113237;28;20678;-75
2023/05/28 02:16:17;;;;;;;7.82;3.75;;;19.00;51.80;;;;;;5094921;28;20310;-75
2023/05/28 02:18:44;;;;;;;7.45;3.25;;;19.00;51.80;;;;;;5094780;28;20181;-75
2023/05/28 02:21:11;;;;;;;7.20;3.20;;;19.00;51.80;;;;;;5113389;28;20221;-75
2023/05/28 02:23:40;;;;;;;6.50;3.00;;;19.00;51.80;;;;;;5113407;28;20186;-75
2023/05/28 02:26:06;;;;;;;5.70;2.97;;;19.00;51.90;;;;;;5113018;28;20221;-75
2023/05/28 02:28:33;;;;;;;7.22;2.97;;;19.00;51.90;;;;;;5113224;28;20181;-75
2023/05/28 02:31:02;;;;;;;6.28;3.53;;;19.00;51.90;;;;;;5113080;28;20232;-75
2023/05/28 02:33:29;;;;;;;8.63;3.30;;;19.00;51.90;;;;;;5113182;28;20288;-75
2023/05/28 02:35:56;;;;;;;8.77;3.03;;;19.00;51.90;;;;;;5112933;28;20229;-75
2023/05/28 02:38:23;;;;;;;6.72;2.90;;;19.00;51.90;;;;;;5113006;28;20567;-75
2023/05/28 02:40:50;;;;;;;6.90;3.30;;;18.90;51.80;;;;;;5112710;28;20402;-75
2023/05/28 02:43:17;;;;;;;7.80;3.17;;;18.90;51.80;;;;;;5112980;28;20182;-75
2023/05/28 02:45:44;;;;;;;6.07;3.00;;;19.00;51.90;;;;;;5094594;28;20736;-74
2023/05/28 02:48:12;;;;;;;10.68;3.15;;;18.90;51.90;;;;;;5112673;28;20558;-75
2023/05/28 02:50:39;;;;;;;8.40;3.13;;;19.00;52.00;;;;;;5094263;28;20233;-75
2023/05/28 02:53:06;;;;;;;7.00;3.15;;;18.90;51.90;;;;;;5112863;28;20199;-74
2023/05/28 02:55:33;;;;;;;8.48;3.25;;;18.90;51.90;;;;;;5094458;28;20310;-75
2023/05/28 02:58:00;;;;;;;8.40;3.78;;;18.90;51.90;;;;;;5112883;28;20585;-75
2023/05/28 03:00:27;;;;;;;5.65;2.92;;;18.90;51.90;;;;;;5094889;28;20300;-75
2023/05/28 03:02:54;;;;;;;7.78;2.88;;;18.90;52.00;;;;;;5112763;28;20212;-75
2023/05/28 03:05:23;;;;;;;7.05;3.20;;;18.90;51.90;;;;;;5094525;28;20221;-74
2023/05/28 03:07:50;;;;;;;7.32;2.70;;;18.90;51.90;;;;;;5112451;28;20359;-75
2023/05/28 03:10:17;;;;;;;7.07;2.90;;;18.90;51.90;;;;;;5112378;28;20223;-75
2023/05/28 03:12:44;;;;;;;7.43;3.00;;;18.90;51.90;;;;;;5112880;28;20566;-75
2023/05/28 03:15:11;;;;;;;6.18;2.88;;;18.90;51.90;;;;;;5112575;28;20659;-74
2023/05/28 03:17:38;;;;;;;4.72;2.70;;;18.90;51.90;;;;;;5112314;28;20223;-74
2023/05/28 03:20:08;;;;;;;6.22;3.08;;;18.90;52.00;;;;;;5112357;28;20708;-74
2023/05/28 03:22:36;;;;;;;6.97;2.95;;;18.90;51.90;;;;;;5112627;28;20280;-75
2023/05/28 03:25:03;;;;;;;4.55;2.53;;;18.90;52.00;;;;;;5112394;28;20221;-74
2023/05/28 03:27:30;;;;;;;6.78;2.63;;;18.90;51.90;;;;;;5112263;28;20193;-75
2023/05/28 03:29:57;;;;;;;5.75;2.67;;;18.90;51.90;;;;;;5095964;28;20213;-74
2023/05/28 03:32:24;;;;;;;5.35;2.85;;;18.90;52.00;;;;;;5116260;28;20270;-74
2023/05/28 03:34:51;;;;;;;10.25;3.45;;;18.90;52.00;;;;;;5116252;28;20224;-75
2023/05/28 03:37:18;;;;;;;9.25;2.92;;;18.90;52.00;;;;;;5116366;28;20224;-74
2023/05/28 03:39:46;;;;;;;6.90;2.90;;;18.90;52.00;;;;;;5116683;28;20604;-74
2023/05/28 03:42:13;;;;;;;7.85;2.85;;;18.90;52.50;;;;;;5080440;28;20283;-74
2023/05/28 03:44:40;;;;;;;7.28;3.05;;;18.90;52.00;;;;;;5116301;28;20318;-74
2023/05/28 03:47:07;;;;;;;7.32;3.38;;;18.90;52.00;;;;;;5116401;28;20197;-74
2023/05/28 03:49:34;;;;;;;7.43;2.92;;;18.90;52.00;;;;;;5116291;28;20240;-74
2023/05/28 03:52:01;;;;;;;5.90;2.67;;;18.90;52.00;;;;;;5115902;28;20237;-75
2023/05/28 03:54:28;;;;;;;4.10;2.50;;;18.80;51.90;;;;;;5116451;28;20204;-74
2023/05/28 03:56:57;;;;;;;5.22;2.83;;;18.90;52.00;;;;;;5116150;28;20221;-74
2023/05/28 03:59:24;;;;;;;5.05;2.50;;;18.90;52.00;;;;;;5115681;28;20635;-74
2023/05/28 04:01:50;;;;;;;6.15;2.80;;;18.80;51.80;;;;;;5116047;28;20194;-74
2023/05/28 04:04:17;;;;;;;7.75;2.95;;;18.80;51.90;;;;;;5115695;28;20185;-74
2023/05/28 04:06:44;;;;;;;6.95;2.85;;;18.80;51.90;;;;;;5115929;28;20288;-74
2023/05/28 04:09:11;;;;;;;5.93;2.70;;;18.80;51.90;;;;;;5115712;28;20726;-74
2023/05/28 04:11:38;;;;;;;5.82;2.90;;;18.80;51.90;;;;;;5115991;28;20195;-74
2023/05/28 04:14:09;;;;;;;7.78;3.00;;;18.80;51.90;;;;;;5115739;28;20708;-74
2023/05/28 04:16:36;;;;;;;5.68;2.72;;;18.80;51.90;;;;;;5115849;28;20233;-75
2023/05/28 04:19:03;;;;;;;6.78;3.03;;;18.80;51.90;;;;;;5115891;28;20189;-75
2023/05/28 04:21:30;;;;;;;5.90;2.65;;;18.80;51.90;;;;;;5115786;28;20213;-75
2023/05/28 04:23:57;;;;;;;6.43;2.83;;;18.80;51.90;;;;;;5115538;28;20192;-75
2023/05/28 04:26:24;;;;;;;6.60;2.90;;;18.80;51.90;;;;;;5115521;28;20209;-75
2023/05/28 04:28:52;;;;;;;4.90;2.70;;;18.80;51.90;;;;;;5115703;28;20181;-75
2023/05/28 04:31:21;;;;;;;5.68;2.80;;;18.80;51.90;;;;;;5115160;28;20224;-75
2023/05/28 04:33:48;;;;;;;6.95;2.97;;;18.80;51.90;;;;;;5115335;28;20189;-75
2023/05/28 04:36:15;;;;;;;5.93;2.90;;;18.80;51.90;;;;;;5115375;28;20225;-74
2023/05/28 04:38:42;;;;;;;8.82;2.75;;;18.80;51.90;;;;;;5115046;28;20568;-75
2023/05/28 04:41:09;;;;;;;5.95;3.05;;;18.80;52.00;;;;;;5114715;28;20213;-74
2023/05/28 04:43:36;;;;;;;8.10;3.17;;;18.80;52.00;;;;;;5115147;28;20230;-75
2023/05/28 04:46:04;;;;;;;5.18;2.72;;;18.80;52.00;;;;;;5115624;28;20213;-75
2023/05/28 04:48:35;;;;;;;5.75;2.80;;;18.80;51.90;;;;;;5115122;28;20189;-75
2023/05/28 04:51:03;;;;;;;5.75;2.80;;;18.80;52.00;;;;;;5114890;28;20240;-75
2023/05/28 04:53:31;;;;;;;9.93;3.33;;;18.80;52.00;;;;;;5115032;28;20223;-75
2023/05/28 04:55:58;;;;;;;6.35;3.00;;;18.80;52.00;;;;;;5114548;28;20213;-75
2023/05/28 04:58:25;;;;;;;7.82;3.08;;;18.80;52.00;;;;;;5114757;28;20670;-74
2023/05/28 05:00:52;;;;;;;5.00;2.60;;;18.70;51.90;;;;;;5115001;28;20213;-75
2023/05/28 05:03:19;;;;;;;3.97;2.72;;;18.80;52.00;;;;;;5096226;28;20234;-75
2023/05/28 05:05:47;;;;;;;5.15;2.20;;;18.80;52.00;;;;;;5114593;28;20629;-75
2023/05/28 05:08:14;;;;;;;7.07;2.83;;;18.80;52.00;;;;;;5114800;28;20528;-75
2023/05/28 05:10:41;;;;;;;8.88;3.00;;;18.80;52.00;;;;;;5114917;28;20304;-75
2023/05/28 05:13:08;;;;;;;6.53;3.00;;;18.80;52.00;;;;;;5114357;28;20595;-75
2023/05/28 05:15:35;;;;;;;4.88;2.70;;;18.80;52.00;;;;;;5115033;28;20220;-75
2023/05/28 05:18:02;;;;;;;5.55;2.72;;;18.80;52.00;;;;;;5114528;28;20236;-75
2023/05/28 05:20:29;;;;;;;6.40;2.80;;;18.70;52.00;;;;;;5096587;28;20309;-75
2023/05/28 05:22:57;;;;;;;6.55;2.80;;;18.80;52.00;;;;;;5096679;28;20240;-75
2023/05/28 05:25:24;;;;;;;8.73;3.28;;;18.80;52.00;;;;;;5114199;28;20750;-75
2023/05/28 05:27:52;;;;;;;6.95;2.95;;;18.70;51.90;;;;;;5114516;28;20193;-75
2023/05/28 05:30:19;;;;;;;4.60;2.72;;;18.80;52.00;;;;;;5114389;28;20213;-74
2023/05/28 05:32:46;;;;;;;7.70;3.17;;;18.80;52.00;;;;;;5114317;28;20191;-74
2023/05/28 05:35:12;;;;;;;7.97;3.40;;;18.80;52.00;;;;;;5113826;28;20213;-75
2023/05/28 05:37:39;;;;;;;4.90;2.63;;;18.80;52.00;;;;;;5113637;28;20305;-75
2023/05/28 05:40:10;;;;;;;7.40;3.00;;;18.80;52.00;;;;;;5113913;28;20299;-75
2023/05/28 05:42:37;;;;;;;5.55;2.90;;;18.80;52.00;;;;;;5114124;28;20196;-74
2023/05/28 05:45:05;;;;;;;6.55;3.15;;;18.80;52.00;;;;;;5114060;28;20252;-75
2023/05/28 05:47:32;;;;;;;7.38;2.80;;;18.80;52.10;;;;;;5096126;28;20193;-75
2023/05/28 05:49:59;;;;;;;7.18;3.42;;;18.80;52.10;;;;;;5113553;28;20232;-74
2023/05/28 05:52:26;;;;;;;6.15;3.10;;;18.80;52.10;;;;;;5113096;28;20201;-74
2023/05/28 05:54:53;;;;;;;6.95;2.88;;;18.80;52.10;;;;;;5113147;28;20213;-75
2023/05/28 05:57:23;;;;;;;6.22;3.05;;;18.80;52.10;;;;;;5113766;28;20603;-75
2023/05/28 05:59:50;;;;;;;5.82;2.95;;;18.80;52.10;;;;;;5113766;28;20216;-74
2023/05/28 06:02:17;;;;;;;5.95;3.28;;;18.80;52.10;;;;;;5113389;28;20584;-75
2023/05/28 06:04:44;;;;;;;5.85;2.78;;;18.80;52.10;;;;;;5113839;28;20306;-75
2023/05/28 06:07:11;;;;;;;4.85;2.65;;;18.80;52.10;;;;;;5113528;28;20189;-75
2023/05/28 06:09:38;;;;;;;7.05;3.20;;;18.80;52.10;;;;;;5113525;28;20613;-75
2023/05/28 06:12:05;;;;;;;5.82;3.30;;;18.80;52.10;;;;;;5113673;28;20189;-75
2023/05/28 06:14:34;;;;;;;8.50;3.40;;;18.80;52.10;;;;;;5077526;28;20655;-75
2023/05/28 06:17:01;;;;;;;7.25;3.25;;;18.80;52.10;;;;;;5113414;28;20219;-75
2023/05/28 06:19:29;;;;;;;8.50;3.25;;;18.80;52.10;;;;;;5113332;28;20192;-75
2023/05/28 06:21:56;;;;;;;8.10;3.30;;;18.80;52.10;;;;;;5113426;28;20463;-75
2023/05/28 06:24:23;;;;;;;5.68;2.85;;;18.80;52.70;;;;;;5094965;28;20186;-74
2023/05/28 06:26:50;;;;;;;6.03;3.38;;;18.80;52.20;;;;;;5113490;28;20193;-75
2023/05/28 06:29:17;;;;;;;8.75;3.15;;;18.80;52.10;;;;;;5113107;28;20235;-74
2023/05/28 06:31:46;;;;;;;8.57;3.05;;;18.80;52.10;;;;;;5113590;28;20244;-74
2023/05/28 06:34:13;;;;;;;6.65;3.28;;;18.80;52.10;;;;;;5113205;28;20563;-75
2023/05/28 06:36:40;;;;;;;6.97;3.35;;;18.80;52.10;;;;;;5094747;28;20710;-74
2023/05/28 06:39:07;;;;;;;6.88;3.10;;;18.80;52.20;;;;;;5112611;28;20195;-75
2023/05/28 06:41:34;;;;;;;6.47;3.38;;;18.80;52.20;;;;;;5113125;28;20213;-75
2023/05/28 06:44:01;;;;;;;7.15;3.05;;;18.90;52.20;;;;;;5112706;28;20646;-75
2023/05/28 06:46:29;;;;;;;5.55;3.00;;;18.90;52.20;;;;;;5094743;28;20220;-75
2023/05/28 06:48:57;;;;;;;7.25;3.30;;;18.90;52.30;;;;;;5112567;28;20659;-75
2023/05/28 06:51:24;;;;;;;5.75;3.08;;;18.80;52.10;;;;;;5112461;28;20240;-74
2023/05/28 06:53:51;;;;;;;8.90;3.50;;;18.80;52.10;;;;;;5112974;28;20201;-75
2023/05/28 06:56:18;;;;;;;6.60;3.15;;;18.90;52.20;;;;;;5112819;28;20220;-75
2023/05/28 06:58:45;;;;;;;7.00;3.60;;;18.90;52.20;;;;;;5112679;28;20336;-74
2023/05/28 07:01:12;;;;;;;6.05;3.40;;;18.90;52.20;;;;;;5112491;28;20217;-75
2023/05/28 07:03:39;;;;;;;7.45;3.28;;;18.90;52.20;;;;;;5112754;28;20190;-75
2023/05/28 07:06:07;;;;;;;5.35;3.03;;;18.90;52.20;;;;;;5112048;28;20706;-75
2023/05/28 07:08:34;;;;;;;6.47;3.13;;;18.90;52.20;;;;;;5112659;28;20190;-75
2023/05/28 07:11:01;;;;;;;6.38;3.28;;;18.90;52.20;;;;;;5112741;28;20304;-75
2023/05/28 07:13:28;;;;;;;8.50;2.92;;;18.90;52.10;;;;;;5112710;28;20189;-75
2023/05/28 07:15:55;;;;;;;7.10;3.00;;;18.90;52.10;;;;;;5112721;28;20221;-75
2023/05/28 07:18:23;;;;;;;6.65;3.13;;;18.90;52.10;;;;;;5112148;28;20223;-74
2023/05/28 07:20:50;;;;;;;6.00;3.35;;;18.90;52.20;;;;;;5112760;28;20271;-74
2023/05/28 07:23:19;;;;;;;5.80;3.20;;;18.90;52.10;;;;;;5112653;28;20271;-75
2023/05/28 07:25:46;;;;;;;8.55;2.80;;;18.90;52.10;;;;;;5094411;28;20573;-74
2023/05/28 07:28:13;;;;;;;7.00;3.15;;;18.90;52.10;;;;;;5094626;28;20192;-74
2023/05/28 07:30:42;;;;;;;6.35;3.03;;;18.90;52.10;;;;;;5112405;28;20560;-74
2023/05/28 07:33:10;;;;;;;4.45;2.53;;;18.90;52.80;;;;;;5112596;28;20255;-75
2023/05/28 07:35:37;;;;;;;6.38;3.17;;;18.90;52.10;;;;;;5112457;28;20217;-74
2023/05/28 07:38:03;;;;;;;7.85;3.40;;;18.90;52.10;;;;;;5112067;28;20609;-74
2023/05/28 07:40:32;;;;;;;7.93;3.78;;;18.90;52.00;;;;;;5112394;28;20223;-74
2023/05/28 07:42:59;;;;;;;6.50;3.28;;;18.90;52.10;;;;;;5112269;28;20186;-74
2023/05/28 07:45:26;;;;;;;8.13;3.60;;;18.90;52.10;;;;;;5112467;28;20217;-74
2023/05/28 07:47:53;;;;;;;7.72;2.90;;;18.90;52.00;;;;;;5093953;28;20201;-74
2023/05/28 07:50:20;;;;;;;6.45;3.10;;;18.90;52.10;;;;;;5112035;28;20235;-75
2023/05/28 07:52:47;;;;;;;7.57;3.40;;;18.90;52.10;;;;;;5112564;28;20193;-74
2023/05/28 07:55:14;;;;;;;4.45;2.67;;;18.90;52.00;;;;;;5111695;28;20245;-74
2023/05/28 07:57:42;;;;;;;4.88;3.30;;;18.90;52.00;;;;;;5111923;28;20205;-74
2023/05/28 08:00:12;;;;;;;8.15;3.45;;;18.90;52.10;;;;;;5112075;28;20710;-75
2023/05/28 08:02:40;;;;;;;5.18;3.28;;;18.90;52.10;;;;;;5112224;28;20190;-75
2023/05/28 08:05:07;;;;;;;6.47;3.40;;;18.90;52.00;;;;;;5111883;28;20224;-75
2023/05/28 08:07:34;;;;;;;7.38;3.45;;;18.90;52.10;;;;;;5112425;28;20193;-74
2023/05/28 08:10:01;;;;;;;9.10;3.40;;;18.90;52.10;;;;;;5112144;28;20219;-75
2023/05/28 08:12:28;;;;;;;9.80;3.45;;;18.90;52.10;;;;;;5112156;28;20190;-75
2023/05/28 08:14:56;;;;;;;6.43;3.17;;;18.90;52.10;;;;;;5093679;28;20616;-75
2023/05/28 08:17:24;;;;;;;6.85;3.30;;;18.90;52.10;;;;;;5113664;28;20217;-75
2023/05/28 08:19:51;;;;;;;8.00;3.40;;;18.90;52.10;;;;;;5115382;28;20665;-75
2023/05/28 08:22:18;;;;;;;6.75;3.10;;;18.90;52.10;;;;;;5115672;28;20186;-75
2023/05/28 08:24:45;;;;;;;7.72;3.47;;;18.90;52.10;;;;;;5115517;28;20193;-75
2023/05/28 08:27:12;;;;;;;9.00;3.35;;;18.90;52.00;;;;;;5115297;28;20665;-75
2023/05/28 08:29:39;;;;;;;4.00;3.08;;;18.90;52.10;;;;;;5115235;28;20199;-75
2023/05/28 08:32:08;;;;;;;5.68;2.67;;;18.90;52.10;;;;;;5115615;28;20217;-75
2023/05/28 08:34:36;;;;;;;6.82;3.45;;;18.90;52.10;;;;;;5097248;28;20186;-75
2023/05/28 08:37:04;;;;;;;6.05;3.22;;;18.90;52.10;;;;;;5115645;28;20189;-74
2023/05/28 08:39:31;;;;;;;5.78;3.17;;;18.90;52.10;;;;;;5114970;28;20671;-74
2023/05/28 08:41:58;;;;;;;6.72;3.38;;;18.90;52.10;;;;;;5115627;28;20213;-75
2023/05/28 08:44:25;;;;;;;8.60;3.45;;;18.90;52.10;;;;;;5096819;28;20194;-75
2023/05/28 08:46:53;;;;;;;10.45;3.95;;;18.90;52.20;;;;;;5097333;28;20265;-75
2023/05/28 08:49:24;;;;;;;6.55;3.40;;;18.90;52.20;;;;;;5115586;28;20201;-75
2023/05/28 08:51:55;;;;;;;8.75;3.78;;;18.90;52.20;;;;;;5114518;28;20706;-75
2023/05/28 08:54:22;;;;;;;6.50;3.70;;;18.90;52.20;;;;;;5115570;28;20199;-75
2023/05/28 08:56:49;;;;;;;5.97;3.25;;;18.90;52.20;;;;;;5114704;28;20213;-75
2023/05/28 08:59:17;;;;;;;7.03;3.13;;;18.90;52.20;;;;;;5114852;28;20689;-75
2023/05/28 09:01:45;;;;;;;7.85;3.42;;;18.90;52.20;;;;;;5114971;28;20213;-74
2023/05/28 09:04:11;;;;;;;8.40;3.90;;;18.90;52.20;;;;;;5114323;28;20201;-75
2023/05/28 09:06:41;;;;;;;7.63;3.30;;;18.90;52.20;;;;;;5114833;28;20220;-74
2023/05/28 09:09:09;;;;;;;5.95;3.20;;;18.90;52.30;;;;;;5114522;28;20185;-74
2023/05/28 09:11:36;;;;;;;7.15;3.58;;;18.90;52.20;;;;;;5114747;28;20645;-74
2023/05/28 09:14:11;;;;;;;9.93;3.65;;;18.90;52.20;;;;;;5114674;28;20192;-75
2023/05/28 09:16:42;;;;;;;8.65;3.50;;;18.90;52.20;;;;;;5114344;28;20590;-75
2023/05/28 09:19:10;;;;;;;6.53;3.40;;;18.90;52.30;;;;;;5114423;28;20216;-75
2023/05/28 09:21:38;;;;;;;5.65;3.35;;;18.90;52.30;;;;;;5114444;28;20303;-75
2023/05/28 09:24:06;;;;;;;6.53;3.08;;;18.90;52.30;;;;;;5114576;28;20196;-74
2023/05/28 09:26:34;;;;;;;7.68;3.50;;;18.90;52.30;;;;;;5114354;28;20248;-75
2023/05/28 09:29:02;;;;;;;6.22;3.30;;;19.00;52.50;;;;;;5114232;28;20587;-75
2023/05/28 09:31:32;;;;;;;7.55;4.05;;;18.90;52.30;;;;;;5114252;28;20217;-75
2023/05/28 09:34:02;;;;;;;6.43;3.40;;;18.90;52.40;;;;;;5114426;28;20268;-74
2023/05/28 09:36:30;;;;;;;6.43;3.40;;;18.90;52.40;;;;;;5114238;28;20213;-74
2023/05/28 09:38:57;;;;;;;9.60;3.95;;;18.90;52.40;;;;;;5114116;28;20221;-75
2023/05/28 09:41:33;;;;;;;7.57;3.50;;;19.00;52.50;;;;;;5114436;28;20216;-75
2023/05/28 09:44:01;;;;;;;8.57;3.90;;;18.90;52.40;;;;;;5114008;28;20196;-75
2023/05/28 09:46:30;;;;;;;8.13;3.70;;;18.90;52.50;;;;;;5113780;28;20783;-75
2023/05/28 09:48:57;;;;;;;8.85;3.80;;;18.90;52.50;;;;;;5113993;28;20197;-74
2023/05/28 09:51:28;;;;;;;7.38;3.30;;;18.90;52.50;;;;;;5113469;28;20277;-74
2023/05/28 09:53:58;;;;;;;8.15;3.40;;;18.90;52.50;;;;;;5113874;28;20185;-74
2023/05/28 09:56:31;;;;;;;7.32;3.85;;;18.90;52.60;;;;;;5113880;28;20224;-74
2023/05/28 09:58:59;;;;;;;7.65;3.78;;;18.90;52.50;;;;;;5113765;28;20217;-74
2023/05/28 10:01:31;;;;;;;7.13;3.50;;;18.90;52.50;;;;;;5113512;28;20215;-75
2023/05/28 10:04:05;;;;;;;8.75;4.20;;;18.90;52.50;;;;;;5113740;28;20197;-75
2023/05/28 10:06:35;;;;;;;10.15;3.70;;;18.90;52.60;;;;;;5113502;28;20725;-75
2023/05/28 10:09:02;;;;;;;7.00;3.58;;;18.90;52.60;;;;;;5095676;28;20216;-75
2023/05/28 10:11:35;;;;;;;6.70;3.28;;;18.90;52.60;;;;;;5113574;28;20273;-75
2023/05/28 10:14:02;;;;;;;6.15;3.60;;;18.90;52.60;;;;;;5113532;28;20243;-75
2023/05/28 10:16:30;;;;;;;7.57;4.07;;;18.90;52.70;;;;;;5113103;28;20296;-74
2023/05/28 10:18:57;;;;;;;11.75;3.67;;;18.90;52.60;;;;;;5113455;28;20304;-74
2023/05/28 10:21:25;;;;;;;8.60;3.70;;;18.90;52.60;;;;;;5113196;28;20220;-74
2023/05/28 10:23:53;;;;;;;6.18;3.55;;;18.90;52.70;;;;;;5113532;28;20289;-74
2023/05/28 10:26:21;;;;;;;8.13;4.35;;;18.90;52.70;;;;;;5078399;28;20570;-75
2023/05/28 10:28:56;;;;;;;8.50;3.80;;;18.90;52.70;;;;;;5113308;28;20276;-74
2023/05/28 10:31:23;;;;;;;6.90;4.38;;;18.90;52.70;;;;;;5112978;28;20713;-74
2023/05/28 10:33:50;;;;;;;9.65;4.18;;;18.90;52.80;;;;;;5113116;28;20196;-74
2023/05/28 10:36:18;;;;;;;10.35;4.13;;;18.90;52.80;;;;;;5113356;28;20213;-75
2023/05/28 10:38:46;;;;;;;9.80;4.15;;;18.90;52.80;;;;;;5112555;28;20581;-74
2023/05/28 10:41:21;;;;;;;10.27;4.25;;;18.90;52.90;;;;;;5078267;28;20239;-74
2023/05/28 10:43:48;;;;;;;8.32;4.00;;;18.90;52.90;;;;;;5113002;28;20682;-75
2023/05/28 10:46:21;;;;;;;10.63;4.63;;;18.90;52.80;;;;;;5112813;28;20217;-74
2023/05/28 10:49:09;;;;;;;9.38;4.50;;;18.90;52.90;;;;;;5112997;28;20193;-75
2023/05/28 10:51:51;;;;;;;10.63;4.63;;;18.90;52.90;;;;;;5112562;28;20244;-75
2023/05/28 10:54:24;;;;;;;10.98;4.25;;;18.90;52.90;;;;;;5112756;28;20271;-74
2023/05/28 10:57:11;;;;;;;8.07;4.43;;;18.90;53.00;;;;;;5112802;28;20610;-75
2023/05/28 10:59:45;;;;;;;6.78;3.65;;;18.90;53.30;;;;;;5112678;28;20519;-75
2023/05/28 11:02:17;;;;;;;10.02;4.47;;;18.90;53.10;;;;;;5112499;28;20196;-74
2023/05/28 11:04:45;;;;;;;9.10;4.35;;;18.90;53.10;;;;;;5112413;28;20182;-74
2023/05/28 11:07:13;;;;;;;7.10;3.85;;;18.90;53.70;;;;;;5112694;28;20185;-74
2023/05/28 11:09:40;;;;;;;9.75;4.95;;;18.90;53.10;;;;;;5112658;28;20189;-74
2023/05/28 11:12:08;;;;;;;8.65;4.28;;;18.90;53.70;;;;;;5112773;28;20220;-75
2023/05/28 11:14:36;;;;;;;10.70;4.20;;;18.90;53.10;;;;;;5112708;28;20208;-74
2023/05/28 11:17:08;;;;;;;9.07;4.75;;;18.90;53.20;;;;;;5112727;28;20567;-75
2023/05/28 11:19:44;;;;;;;7.80;4.38;;;18.90;53.10;;;;;;5112473;28;20216;-74
2023/05/28 11:22:11;;;;;;;10.30;4.95;;;18.90;53.10;;;;;;5112702;28;20212;-74
2023/05/28 11:25:07;;;;;;;12.18;4.85;;;18.90;53.20;;;;;;5112418;28;20203;-74
2023/05/28 11:27:35;;;;;;;7.90;4.40;;;18.90;53.30;;;;;;5065256;28;20192;-74
2023/05/28 11:30:08;;;;;;;9.30;4.50;;;18.90;53.20;;;;;;5112462;28;20203;-74
2023/05/28 11:32:35;;;;;;;8.75;4.45;;;18.90;53.30;;;;;;5112467;28;20185;-74
2023/05/28 11:35:04;;;;;;;11.00;4.95;;;18.90;53.30;;;;;;5112124;28;20646;-74
2023/05/28 11:37:33;;;;;;;8.10;4.40;;;18.90;53.30;;;;;;5112386;28;20186;-74
2023/05/28 11:40:01;;;;;;;10.38;4.50;;;18.90;53.40;;;;;;5094184;28;20224;-74
2023/05/28 11:42:29;;;;;;;9.68;4.88;;;18.90;53.40;;;;;;5112741;28;20613;-74
2023/05/28 11:44:57;;;;;;;8.75;5.22;;;18.90;53.40;;;;;;5112189;28;20290;-74
2023/05/28 11:47:26;;;;;;;11.40;4.85;;;18.90;53.50;;;;;;5112292;28;20182;-74
2023/05/28 11:49:53;;;;;;;10.32;4.97;;;18.90;53.50;;;;;;5112097;28;20186;-75
2023/05/28 11:52:24;;;;;;;12.48;5.68;;;18.90;53.50;;;;;;5115938;28;20238;-75
2023/05/28 11:54:55;;;;;;;9.18;5.47;;;18.90;53.50;;;;;;5116061;28;20192;-75
2023/05/28 11:57:23;;;;;;;10.15;5.15;;;18.90;53.50;;;;;;5116339;28;20202;-75
2023/05/28 11:59:59;;;;;;;11.30;5.85;;;18.90;53.60;;;;;;5116027;28;20266;-75
2023/05/28 12:02:27;;;;;;;12.63;5.68;;;18.90;53.60;;;;;;5116067;28;20234;-75
2023/05/28 12:04:55;;;;;;;10.75;5.40;;;18.90;53.60;;;;;;5115954;28;20200;-75
2023/05/28 12:07:28;;;;;;;10.32;5.22;;;18.90;53.60;;;;;;5115872;28;20185;-75
2023/05/28 12:10:06;;;;;;;12.50;5.75;;;18.90;53.70;;;;;;5115938;28;20189;-75
2023/05/28 12:12:33;;;;;;;11.93;5.03;;;18.90;53.70;;;;;;5115461;28;20203;-75
2023/05/28 12:15:03;;;;;;;11.00;5.38;;;18.90;54.40;;;;;;5115841;28;20213;-75
2023/05/28 12:17:37;;;;;;;10.85;5.53;;;18.90;53.80;;;;;;5115780;28;20189;-75
2023/05/28 12:20:06;;;;;;;10.35;5.38;;;18.90;53.70;;;;;;5115523;28;20323;-75
2023/05/28 12:22:35;;;;;;;8.57;4.82;;;18.90;53.80;;;;;;5115713;28;20273;-75
2023/05/28 12:25:02;;;;;;;11.32;5.60;;;18.90;53.80;;;;;;5115705;28;20276;-75
2023/05/28 12:27:30;;;;;;;9.85;6.10;;;18.90;53.90;;;;;;5115388;28;20221;-75
2023/05/28 12:29:57;;;;;;;11.57;5.70;;;18.90;53.90;;;;;;5115123;28;20276;-75
2023/05/28 12:32:24;;;;;;;10.80;5.05;;;18.90;53.80;;;;;;5115289;28;20654;-75
2023/05/28 12:34:51;;;;;;;11.60;5.10;;;18.90;53.90;;;;;;5115165;28;20197;-75
2023/05/28 12:37:18;;;;;;;10.32;5.45;;;18.90;53.90;;;;;;5116004;28;20213;-75
2023/05/28 12:39:46;;;;;;;10.48;5.80;;;18.90;53.90;;;;;;5115083;28;20729;-74
2023/05/28 12:42:13;;;;;;;13.85;5.88;;;18.90;54.00;;;;;;5115312;28;20716;-75
2023/05/28 12:44:40;;;;;;;8.43;5.50;;;18.90;53.90;;;;;;5114911;28;20182;-74
2023/05/28 12:47:08;;;;;;;11.00;5.95;;;18.90;54.00;;;;;;5115182;28;20589;-74
2023/05/28 12:49:35;;;;;;;11.18;5.85;;;18.90;54.00;;;;;;5097161;28;20201;-75